createdAt,value
2018-05-10T00:00:44.555Z,11.60
2018-05-10T00:01:44.643Z,11.20
2018-05-10T00:02:44.683Z,15.90
2018-05-10T00:03:44.649Z,11.30
2018-05-10T00:04:44.554Z,10.00
2018-05-10T00:05:44.098Z,13.40
2018-05-10T00:06:43.749Z,14.90
2018-05-10T00:07:44.923Z,10.90
2018-05-10T00:08:43.910Z,9.20
2018-05-10T00:09:45.003Z,13.10
2018-05-10T00:10:44.064Z,8.00
2018-05-10T00:11:43.927Z,11.20
2018-05-10T00:12:44.656Z,14.80
2018-05-10T00:13:44.647Z,8.90
2018-05-10T00:14:45.096Z,13.90
2018-05-10T00:15:44.300Z,7.60
2018-05-10T00:17:04.924Z,16.70
2018-05-10T00:18:05.481Z,11.30
2018-05-10T00:19:05.620Z,10.80
2018-05-10T00:20:05.753Z,10.00
2018-05-10T00:21:46.979Z,11.30
2018-05-10T00:22:47.971Z,16.30
2018-05-10T00:23:47.696Z,12.60
2018-05-10T00:24:47.727Z,11.00
2018-05-10T00:25:47.776Z,11.50
2018-05-10T00:27:07.809Z,11.70
2018-05-10T00:28:08.735Z,11.70
2018-05-10T00:29:08.636Z,8.50
2018-05-10T00:30:08.228Z,12.70
2018-05-10T00:31:08.337Z,9.70
2018-05-10T00:32:49.208Z,11.60
2018-05-10T00:33:49.865Z,14.20
2018-05-10T00:34:49.575Z,12.70
2018-05-10T00:35:49.280Z,12.30
2018-05-10T00:37:51.814Z,10.10
2018-05-10T00:38:52.808Z,14.90
2018-05-10T00:39:51.920Z,14.10
2018-05-10T00:40:51.694Z,11.80
2018-05-10T00:41:52.736Z,12.00
2018-05-10T00:42:51.924Z,14.30
2018-05-10T00:43:51.973Z,8.30
2018-05-10T00:44:51.953Z,16.60
2018-05-10T00:45:51.616Z,12.80
2018-05-10T00:46:52.964Z,20.10
2018-05-10T00:47:51.489Z,15.40
2018-05-10T00:48:52.239Z,13.30
2018-05-10T00:49:52.226Z,12.00
2018-05-10T00:50:52.815Z,10.50
2018-05-10T00:51:51.367Z,12.30
2018-05-10T00:53:13.552Z,11.20
2018-05-10T00:54:14.570Z,12.30
2018-05-10T00:55:13.735Z,12.20
2018-05-10T00:56:13.367Z,17.40
2018-05-10T00:57:14.187Z,14.70
2018-05-10T00:58:14.480Z,12.60
2018-05-10T00:59:14.001Z,12.80
2018-05-10T01:00:56.078Z,12.20
2018-05-10T01:02:18.346Z,12.30
2018-05-10T01:03:18.265Z,11.60
2018-05-10T01:04:18.910Z,17.00
2018-05-10T01:05:18.969Z,11.60
2018-05-10T01:06:39.801Z,10.60
2018-05-10T01:07:39.654Z,12.30
2018-05-10T01:08:40.532Z,13.80
2018-05-10T01:09:40.357Z,14.00
2018-05-10T01:10:40.284Z,14.40
2018-05-10T01:11:40.244Z,10.50
2018-05-10T01:12:40.216Z,16.60
2018-05-10T01:13:40.287Z,16.30
2018-05-10T01:14:40.144Z,16.10
2018-05-10T01:15:39.729Z,13.40
2018-05-10T01:16:39.502Z,18.80
2018-05-10T01:17:40.319Z,12.90
2018-05-10T01:18:40.294Z,16.70
2018-05-10T01:19:40.025Z,9.80
2018-05-10T01:20:40.156Z,14.70
2018-05-10T01:21:39.832Z,11.90
2018-05-10T01:22:39.775Z,16.20
2018-05-10T01:23:40.782Z,13.90
2018-05-10T01:24:39.782Z,11.90
2018-05-10T01:26:00.335Z,15.50
2018-05-10T01:27:00.083Z,13.20
2018-05-10T01:28:01.100Z,12.50
2018-05-10T01:29:00.888Z,17.40
2018-05-10T01:30:00.992Z,13.60
2018-05-10T01:31:01.164Z,10.90
2018-05-10T01:32:21.401Z,11.30
2018-05-10T01:33:22.116Z,10.70
2018-05-10T01:34:22.092Z,14.50
2018-05-10T01:35:21.626Z,12.10
2018-05-10T01:36:21.719Z,13.30
2018-05-10T01:37:21.372Z,18.30
2018-05-10T01:38:22.649Z,11.30
2018-05-10T01:39:21.367Z,12.70
2018-05-10T01:40:22.447Z,13.20
2018-05-10T01:41:22.586Z,9.40
2018-05-10T01:42:21.670Z,10.90
2018-05-10T01:43:22.515Z,13.60
2018-05-10T01:44:22.187Z,9.90
2018-05-10T01:45:21.940Z,14.70
2018-05-10T01:46:21.707Z,11.00
2018-05-10T01:47:21.528Z,14.00
2018-05-10T01:48:22.248Z,11.60
2018-05-10T01:49:22.279Z,16.80
2018-05-10T01:50:42.347Z,12.20
2018-05-10T01:51:42.549Z,13.40
2018-05-10T01:52:42.556Z,10.30
2018-05-10T01:53:42.093Z,9.80
2018-05-10T01:55:03.132Z,17.30
2018-05-10T01:56:24.621Z,13.30
2018-05-10T01:57:25.349Z,12.40
2018-05-10T01:58:24.945Z,8.50
2018-05-10T01:59:25.004Z,15.80
2018-05-10T02:00:25.052Z,13.70
2018-05-10T02:01:24.942Z,11.80
2018-05-10T02:02:25.118Z,10.50
2018-05-10T02:03:25.200Z,15.30
2018-05-10T02:04:24.683Z,23.40
2018-05-10T02:05:25.734Z,12.00
2018-05-10T02:06:25.777Z,17.30
2018-05-10T02:07:25.709Z,12.60
2018-05-10T02:08:25.787Z,12.70
2018-05-10T02:09:25.322Z,13.50
2018-05-10T02:10:25.040Z,12.70
2018-05-10T02:11:24.656Z,14.20
2018-05-10T02:12:45.840Z,16.60
2018-05-10T02:13:46.629Z,12.40
2018-05-10T02:15:06.934Z,14.60
2018-05-10T02:16:28.897Z,14.80
2018-05-10T02:17:28.988Z,12.70
2018-05-10T02:18:29.137Z,11.30
2018-05-10T02:19:28.629Z,15.60
2018-05-10T02:20:29.609Z,13.40
2018-05-10T02:21:29.587Z,13.00
2018-05-10T02:22:29.040Z,12.20
2018-05-10T02:23:28.551Z,13.40
2018-05-10T02:24:29.487Z,18.70
2018-05-10T02:25:29.075Z,13.30
2018-05-10T02:26:29.012Z,12.90
2018-05-10T02:27:29.005Z,11.20
2018-05-10T02:28:28.586Z,11.60
2018-05-10T02:29:29.234Z,13.80
2018-05-10T02:30:49.081Z,11.90
2018-05-10T02:31:50.066Z,13.70
2018-05-10T02:32:49.483Z,9.50
2018-05-10T02:34:10.266Z,9.80
2018-05-10T02:35:11.010Z,11.70
2018-05-10T02:36:10.552Z,17.20
2018-05-10T02:37:51.387Z,11.50
2018-05-10T02:38:52.320Z,15.00
2018-05-10T02:39:52.292Z,14.00
2018-05-10T02:40:52.008Z,12.50
2018-05-10T02:41:51.978Z,13.00
2018-05-10T02:43:12.371Z,11.60
2018-05-10T02:44:13.310Z,16.20
2018-05-10T02:45:13.190Z,13.40
2018-05-10T02:46:33.843Z,13.90
2018-05-10T02:47:34.374Z,10.30
2018-05-10T02:48:33.968Z,12.60
2018-05-10T02:49:33.821Z,11.60
2018-05-10T02:50:34.375Z,15.10
2018-05-10T02:51:34.260Z,9.70
2018-05-10T02:52:34.351Z,10.60
2018-05-10T02:53:33.813Z,12.60
2018-05-10T02:55:36.026Z,18.90
2018-05-10T02:56:36.904Z,18.20
2018-05-10T02:57:57.509Z,10.80
2018-05-10T02:58:57.475Z,14.60
2018-05-10T03:00:19.185Z,12.00
2018-05-10T03:01:19.515Z,13.00
2018-05-10T03:02:19.117Z,13.10
2018-05-10T03:03:20.133Z,14.90
2018-05-10T03:04:19.148Z,15.00
2018-05-10T03:05:20.037Z,11.50
2018-05-10T03:06:19.721Z,16.80
2018-05-10T03:07:40.568Z,10.20
2018-05-10T03:08:41.567Z,14.40
2018-05-10T03:09:41.205Z,15.50
2018-05-10T03:11:01.960Z,14.90
2018-05-10T03:12:02.601Z,12.20
2018-05-10T03:13:02.630Z,18.40
2018-05-10T03:14:23.090Z,17.90
2018-05-10T03:15:44.034Z,15.80
2018-05-10T03:16:44.928Z,14.70
2018-05-10T03:17:44.988Z,12.30
2018-05-10T03:18:44.669Z,16.80
2018-05-10T03:20:04.944Z,13.10
2018-05-10T03:21:06.050Z,14.70
2018-05-10T03:22:05.540Z,13.70
2018-05-10T03:23:05.288Z,17.40
2018-05-10T03:24:06.271Z,15.70
2018-05-10T03:25:06.341Z,14.50
2018-05-10T03:26:06.237Z,10.00
2018-05-10T03:27:26.454Z,12.20
2018-05-10T03:28:26.163Z,11.40
2018-05-10T03:29:26.916Z,10.70
2018-05-10T03:30:26.525Z,10.90
2018-05-10T03:31:27.503Z,10.10
2018-05-10T03:32:27.077Z,13.40
2018-05-10T03:33:47.426Z,18.40
2018-05-10T03:35:29.569Z,14.80
2018-05-10T03:36:29.584Z,13.10
2018-05-10T03:37:29.587Z,11.30
2018-05-10T03:38:30.176Z,16.30
2018-05-10T03:39:29.808Z,14.60
2018-05-10T03:40:29.401Z,14.40
2018-05-10T03:41:30.292Z,11.20
2018-05-10T03:42:30.250Z,15.30
2018-05-10T03:43:30.276Z,15.80
2018-05-10T03:44:30.316Z,12.90
2018-05-10T03:45:30.185Z,14.70
2018-05-10T03:46:29.920Z,12.60
2018-05-10T03:47:29.726Z,15.30
2018-05-10T03:48:29.822Z,14.00
2018-05-10T03:50:31.348Z,15.00
2018-05-10T03:51:43.157Z,12.40
2018-05-10T03:52:31.875Z,14.30
2018-05-10T03:53:32.038Z,14.10
2018-05-10T03:54:52.272Z,13.70
2018-05-10T03:55:53.249Z,11.20
2018-05-10T03:56:52.553Z,18.40
2018-05-10T03:57:52.666Z,16.00
2018-05-10T03:58:52.731Z,14.30
2018-05-10T03:59:53.526Z,13.40
2018-05-10T04:00:52.474Z,14.10
2018-05-10T04:02:33.275Z,10.40
2018-05-10T04:03:34.182Z,12.10
2018-05-10T04:04:54.722Z,11.50
2018-05-10T04:05:56.094Z,14.10
2018-05-10T04:06:54.979Z,12.60
2018-05-10T04:07:55.731Z,12.50
2018-05-10T04:08:55.684Z,12.80
2018-05-10T04:09:55.873Z,13.00
2018-05-10T04:10:55.623Z,15.10
2018-05-10T04:11:56.103Z,17.90
2018-05-10T04:12:54.948Z,17.40
2018-05-10T04:13:56.007Z,14.40
2018-05-10T04:14:54.730Z,14.80
2018-05-10T04:15:55.616Z,13.00
2018-05-10T04:16:55.418Z,15.40
2018-05-10T04:17:55.816Z,13.40
2018-05-10T04:18:55.995Z,12.10
2018-05-10T04:19:55.160Z,13.80
2018-05-10T04:20:54.978Z,12.90
2018-05-10T04:21:54.936Z,13.90
2018-05-10T04:22:54.762Z,15.60
2018-05-10T04:23:55.516Z,12.20
2018-05-10T04:24:55.689Z,19.20
2018-05-10T04:25:55.899Z,15.60
2018-05-10T04:27:15.528Z,16.20
2018-05-10T04:28:15.712Z,14.30
2018-05-10T04:29:15.852Z,17.50
2018-05-10T04:30:15.699Z,16.20
2018-05-10T04:31:15.314Z,16.40
2018-05-10T04:32:16.451Z,14.10
2018-05-10T04:33:15.686Z,12.30
2018-05-10T04:34:15.765Z,13.40
2018-05-10T04:35:15.941Z,12.50
2018-05-10T04:36:16.026Z,13.60
2018-05-10T04:37:16.107Z,15.00
2018-05-10T04:38:22.579Z,16.00
2018-05-10T04:39:15.443Z,17.10
2018-05-10T04:40:15.360Z,13.70
2018-05-10T04:41:15.560Z,14.10
2018-05-10T04:42:15.302Z,15.10
2018-05-10T04:43:15.545Z,13.60
2018-05-10T04:44:15.375Z,15.30
2018-05-10T04:45:15.497Z,12.50
2018-05-10T04:46:15.780Z,18.20
2018-05-10T04:47:15.939Z,17.60
2018-05-10T04:48:15.786Z,16.60
2018-05-10T04:49:15.735Z,21.20
2018-05-10T04:50:15.674Z,28.50
2018-05-10T04:51:15.736Z,30.60
2018-05-10T04:52:15.764Z,33.10
2018-05-10T04:53:38.483Z,34.80
2018-05-10T04:54:38.400Z,44.20
2018-05-10T04:55:38.642Z,42.50
2018-05-10T04:56:39.154Z,45.80
2018-05-10T04:57:39.308Z,47.20
2018-05-10T04:58:39.591Z,49.00
2018-05-10T04:59:38.336Z,51.40
2018-05-10T05:00:38.165Z,50.20
2018-05-10T05:01:59.718Z,51.40
2018-05-10T05:03:00.515Z,54.70
2018-05-10T05:04:00.307Z,57.50
2018-05-10T05:05:00.376Z,60.60
2018-05-10T05:06:00.272Z,58.30
2018-05-10T05:07:00.459Z,69.40
2018-05-10T05:08:00.693Z,67.00
2018-05-10T05:09:00.955Z,73.10
2018-05-10T05:10:00.999Z,74.00
2018-05-10T05:11:00.980Z,73.10
2018-05-10T05:11:59.925Z,73.30
2018-05-10T05:13:01.000Z,80.90
2018-05-10T05:14:00.626Z,79.10
2018-05-10T05:15:00.740Z,79.60
2018-05-10T05:16:00.969Z,77.00
2018-05-10T05:17:00.056Z,79.00
2018-05-10T05:18:00.625Z,76.80
2018-05-10T05:19:00.391Z,80.50
2018-05-10T05:20:00.640Z,82.30
2018-05-10T05:21:21.922Z,83.90
2018-05-10T05:22:22.224Z,84.60
2018-05-10T05:23:22.404Z,85.80
2018-05-10T05:24:23.647Z,82.90
2018-05-10T05:25:23.270Z,82.40
2018-05-10T05:26:23.000Z,82.50
2018-05-10T05:27:22.745Z,88.80
2018-05-10T05:28:22.727Z,81.00
2018-05-10T05:29:23.057Z,81.70
2018-05-10T05:30:22.132Z,83.10
2018-05-10T05:31:21.922Z,82.10
2018-05-10T05:32:21.995Z,82.20
2018-05-10T05:33:21.778Z,84.30
2018-05-10T05:34:22.083Z,87.90
2018-05-10T05:35:22.278Z,86.90
2018-05-10T05:36:43.441Z,84.20
2018-05-10T05:37:43.658Z,90.20
2018-05-10T05:38:43.484Z,89.20
2018-05-10T05:40:04.920Z,82.90
2018-05-10T05:41:05.718Z,82.40
2018-05-10T05:42:05.607Z,88.90
2018-05-10T05:43:05.886Z,87.30
2018-05-10T05:44:05.960Z,88.00
2018-05-10T05:45:05.824Z,91.50
2018-05-10T05:46:27.072Z,92.60
2018-05-10T05:47:27.243Z,89.10
2018-05-10T05:48:27.399Z,88.80
2018-05-10T05:49:27.335Z,89.40
2018-05-10T05:50:27.143Z,89.80
2018-05-10T05:51:27.441Z,91.60
2018-05-10T05:52:27.665Z,92.80
2018-05-10T05:53:27.567Z,90.20
2018-05-10T05:54:27.469Z,89.60
2018-05-10T05:55:27.465Z,89.70
2018-05-10T05:56:27.593Z,89.90
2018-05-10T05:57:27.292Z,92.80
2018-05-10T05:58:27.051Z,88.20
2018-05-10T05:59:26.875Z,94.80
2018-05-10T06:00:27.020Z,89.40
2018-05-10T06:01:48.276Z,89.80
2018-05-10T06:02:48.132Z,84.60
2018-05-10T06:04:10.476Z,83.70
2018-05-10T06:05:11.404Z,82.60
2018-05-10T06:06:11.655Z,84.80
2018-05-10T06:07:31.173Z,83.20
2018-05-10T06:08:32.069Z,80.10
2018-05-10T06:09:31.756Z,76.80
2018-05-10T06:10:32.015Z,78.90
2018-05-10T06:11:32.100Z,80.00
2018-05-10T06:12:32.022Z,77.70
2018-05-10T06:13:31.713Z,79.60
2018-05-10T06:14:31.786Z,73.10
2018-05-10T06:15:32.154Z,74.90
2018-05-10T06:16:32.085Z,74.10
2018-05-10T06:17:32.231Z,80.20
2018-05-10T06:18:32.595Z,75.00
2018-05-10T06:19:31.894Z,77.60
2018-05-10T06:20:52.289Z,74.00
2018-05-10T06:21:54.076Z,73.30
2018-05-10T06:22:53.451Z,67.50
2018-05-10T06:23:52.488Z,72.20
2018-05-10T06:24:53.683Z,64.10
2018-05-10T06:25:52.809Z,63.80
2018-05-10T06:26:52.808Z,66.80
2018-05-10T06:27:53.024Z,66.50
2018-05-10T06:28:53.135Z,72.10
2018-05-10T06:29:53.372Z,67.10
2018-05-10T06:30:53.502Z,63.50
2018-05-10T06:32:13.992Z,63.20
2018-05-10T06:33:13.711Z,61.90
2018-05-10T06:34:13.507Z,65.40
2018-05-10T06:35:14.637Z,63.80
2018-05-10T06:36:13.447Z,65.70
2018-05-10T06:37:14.832Z,62.10
2018-05-10T06:38:13.513Z,66.70
2018-05-10T06:39:13.731Z,63.40
2018-05-10T06:40:13.651Z,66.10
2018-05-10T06:41:13.834Z,63.00
2018-05-10T06:42:13.973Z,62.20
2018-05-10T06:43:14.368Z,61.40
2018-05-10T06:44:14.353Z,57.90
2018-05-10T06:45:14.638Z,62.50
2018-05-10T06:46:13.988Z,60.50
2018-05-10T06:47:13.858Z,61.20
2018-05-10T06:48:14.169Z,62.10
2018-05-10T06:49:14.076Z,62.30
2018-05-10T06:50:14.466Z,56.00
2018-05-10T06:51:14.289Z,53.30
2018-05-10T06:52:15.729Z,53.30
2018-05-10T06:53:13.583Z,53.20
2018-05-10T06:54:13.780Z,51.30
2018-05-10T06:55:14.096Z,50.90
2018-05-10T06:56:14.065Z,50.80
2018-05-10T06:57:13.809Z,53.30
2018-05-10T06:58:13.771Z,47.10
2018-05-10T06:59:13.728Z,50.30
2018-05-10T07:00:13.940Z,47.80
2018-05-10T07:01:14.418Z,49.30
2018-05-10T07:02:13.795Z,50.40
2018-05-10T07:03:14.190Z,48.70
2018-05-10T07:04:14.148Z,47.90
2018-05-10T07:05:14.583Z,50.00
2018-05-10T07:06:14.079Z,45.90
2018-05-10T07:07:14.064Z,50.60
2018-05-10T07:08:14.050Z,46.90
2018-05-10T07:09:14.195Z,49.10
2018-05-10T07:10:14.527Z,48.10
2018-05-10T07:11:35.062Z,46.60
2018-05-10T07:12:35.913Z,41.10
2018-05-10T07:13:35.775Z,46.00
2018-05-10T07:14:56.252Z,43.60
2018-05-10T07:15:57.225Z,42.00
2018-05-10T07:17:18.026Z,44.20
2018-05-10T07:18:19.058Z,42.10
2018-05-10T07:19:19.414Z,41.50
2018-05-10T07:20:18.222Z,38.40
2018-05-10T07:21:18.103Z,37.60
2018-05-10T07:22:39.008Z,39.80
2018-05-10T07:23:39.136Z,38.20
2018-05-10T07:25:00.113Z,36.80
2018-05-10T07:26:01.280Z,35.10
2018-05-10T07:27:00.789Z,35.20
2018-05-10T07:28:00.957Z,34.10
2018-05-10T07:29:01.250Z,35.80
2018-05-10T07:30:00.108Z,35.70
2018-05-10T07:31:00.629Z,32.70
2018-05-10T07:32:01.661Z,36.80
2018-05-10T07:33:21.897Z,33.50
2018-05-10T07:34:22.176Z,34.60
2018-05-10T07:35:21.945Z,31.80
2018-05-10T07:36:22.228Z,33.30
2018-05-10T07:37:22.206Z,32.50
2018-05-10T07:38:22.461Z,35.20
2018-05-10T07:39:22.636Z,34.90
2018-05-10T07:40:22.730Z,33.10
2018-05-10T07:41:21.987Z,32.60
2018-05-10T07:42:21.853Z,29.70
2018-05-10T07:43:22.085Z,28.50
2018-05-10T07:44:43.317Z,27.50
2018-05-10T07:45:43.599Z,31.20
2018-05-10T07:47:06.895Z,30.10
2018-05-10T07:48:27.897Z,26.50
2018-05-10T07:49:27.824Z,28.90
2018-05-10T07:50:28.064Z,28.40
2018-05-10T07:51:27.949Z,24.90
2018-05-10T07:52:49.096Z,25.40
2018-05-10T07:53:50.742Z,27.50
2018-05-10T07:54:49.696Z,27.10
2018-05-10T07:55:49.965Z,23.30
2018-05-10T07:57:09.378Z,23.30
2018-05-10T07:58:10.325Z,24.80
2018-05-10T07:59:10.388Z,23.40
2018-05-10T08:00:32.153Z,20.50
2018-05-10T08:01:32.086Z,21.70
2018-05-10T08:02:32.805Z,20.70
2018-05-10T08:03:32.196Z,22.20
2018-05-10T08:04:53.748Z,23.40
2018-05-10T08:05:53.637Z,20.60
2018-05-10T08:06:53.500Z,20.60
2018-05-10T08:08:14.724Z,18.90
2018-05-10T08:09:15.067Z,17.50
2018-05-10T08:10:15.104Z,17.90
2018-05-10T08:11:15.461Z,19.20
2018-05-10T08:12:15.472Z,19.00
2018-05-10T08:13:15.669Z,16.60
2018-05-10T08:14:15.984Z,16.80
2018-05-10T08:15:15.523Z,16.80
2018-05-10T08:16:36.744Z,18.80
2018-05-10T08:17:37.502Z,19.10
2018-05-10T08:18:37.561Z,17.00
2018-05-10T08:19:37.160Z,22.30
2018-05-10T08:20:36.999Z,18.00
2018-05-10T08:21:37.313Z,19.60
2018-05-10T08:22:37.722Z,18.10
2018-05-10T08:23:36.848Z,17.40
2018-05-10T08:24:58.436Z,16.60
2018-05-10T08:25:58.276Z,15.80
2018-05-10T08:26:58.289Z,17.00
2018-05-10T08:27:58.534Z,17.40
2018-05-10T08:28:59.283Z,16.80
2018-05-10T08:29:58.673Z,16.10
2018-05-10T08:31:20.002Z,16.70
2018-05-10T08:32:20.955Z,17.90
2018-05-10T08:33:20.152Z,16.50
2018-05-10T08:34:20.017Z,20.30
2018-05-10T08:35:19.850Z,17.10
2018-05-10T08:36:20.071Z,15.30
2018-05-10T08:37:20.144Z,16.60
2018-05-10T08:38:21.180Z,16.40
2018-05-10T08:39:20.391Z,16.70
2018-05-10T08:40:20.394Z,15.60
2018-05-10T08:41:20.920Z,16.60
2018-05-10T08:42:19.745Z,18.30
2018-05-10T08:43:19.976Z,14.50
2018-05-10T08:44:20.209Z,15.40
2018-05-10T08:45:20.422Z,15.70
2018-05-10T08:46:20.573Z,15.40
2018-05-10T08:47:20.968Z,13.70
2018-05-10T08:48:20.160Z,18.00
2018-05-10T08:49:20.196Z,19.10
2018-05-10T08:50:20.210Z,16.90
2018-05-10T08:51:20.292Z,18.40
2018-05-10T08:52:20.933Z,15.80
2018-05-10T08:54:02.900Z,17.30
2018-05-10T08:55:02.802Z,20.50
2018-05-10T08:56:03.544Z,16.40
2018-05-10T08:57:03.427Z,17.10
2018-05-10T08:58:24.918Z,16.00
2018-05-10T08:59:26.394Z,18.00
2018-05-10T09:00:26.492Z,18.60
2018-05-10T09:01:27.434Z,21.60
2018-05-10T09:02:25.574Z,18.30
2018-05-10T09:03:26.251Z,16.80
2018-05-10T09:04:25.611Z,18.40
2018-05-10T09:05:24.578Z,16.70
2018-05-10T09:07:07.270Z,19.20
2018-05-10T09:08:08.450Z,15.80
2018-05-10T09:09:07.550Z,15.50
2018-05-10T09:10:07.740Z,17.90
2018-05-10T09:11:07.929Z,16.70
2018-05-10T09:12:07.902Z,16.80
2018-05-10T09:13:07.318Z,16.90
2018-05-10T09:14:07.705Z,16.30
2018-05-10T09:15:07.722Z,18.10
2018-05-10T09:16:07.698Z,18.90
2018-05-10T09:17:07.660Z,16.60
2018-05-10T09:18:08.048Z,16.70
2018-05-10T09:19:07.150Z,15.60
2018-05-10T09:20:29.322Z,17.90
2018-05-10T09:21:29.762Z,16.40
2018-05-10T09:22:29.158Z,17.90
2018-05-10T09:23:28.895Z,17.00
2018-05-10T09:24:28.877Z,17.20
2018-05-10T09:25:29.103Z,16.60
2018-05-10T09:26:29.442Z,16.60
2018-05-10T09:27:29.829Z,17.20
2018-05-10T09:28:29.519Z,18.20
2018-05-10T09:29:30.318Z,17.60
2018-05-10T09:30:30.555Z,17.90
2018-05-10T09:31:29.493Z,18.30
2018-05-10T09:32:30.019Z,17.80
2018-05-10T09:34:15.614Z,18.80
2018-05-10T09:35:19.488Z,24.20
2018-05-10T09:36:17.951Z,18.50
2018-05-10T09:37:17.842Z,16.50
2018-05-10T09:38:19.220Z,16.50
2018-05-10T09:39:17.784Z,18.30
2018-05-10T09:40:17.387Z,18.50
2018-05-10T09:41:18.268Z,18.10
2018-05-10T09:42:18.060Z,20.70
2018-05-10T09:43:17.909Z,17.20
2018-05-10T09:44:18.160Z,18.20
2018-05-10T09:45:17.429Z,18.20
2018-05-10T09:46:17.672Z,17.70
2018-05-10T09:47:16.680Z,18.30
2018-05-10T09:48:17.553Z,20.60
2018-05-10T09:49:51.817Z,21.90
2018-05-10T09:50:52.530Z,22.00
2018-05-10T09:51:52.500Z,18.40
2018-05-10T09:52:51.723Z,19.90
2018-05-10T09:53:53.058Z,19.60
2018-05-10T09:54:51.017Z,20.30
2018-05-10T09:55:53.216Z,18.50
2018-05-10T09:56:43.479Z,19.00
2018-05-10T09:57:59.842Z,20.10
2018-05-10T09:59:21.100Z,22.80
2018-05-10T10:00:43.259Z,20.90
2018-05-10T10:01:43.764Z,20.00
2018-05-10T10:02:42.906Z,19.40
2018-05-10T10:03:43.345Z,18.90
2018-05-10T10:04:43.315Z,19.20
2018-05-10T10:05:43.379Z,19.20
2018-05-10T10:06:43.854Z,17.70
2018-05-10T10:07:44.272Z,19.30
2018-05-10T10:08:43.861Z,18.50
2018-05-10T10:09:44.393Z,18.10
2018-05-10T10:10:44.024Z,21.00
2018-05-10T10:11:44.025Z,20.00
2018-05-10T10:12:43.122Z,19.30
2018-05-10T10:13:43.157Z,18.60
2018-05-10T10:14:43.401Z,17.00
2018-05-10T10:15:47.067Z,18.70
2018-05-10T10:16:43.985Z,17.00
2018-05-10T10:18:05.751Z,16.80
2018-05-10T10:19:06.285Z,18.70
2018-05-10T10:20:05.955Z,17.00
2018-05-10T10:21:05.422Z,16.30
2018-05-10T10:22:07.376Z,15.90
2018-05-10T10:23:05.605Z,19.90
2018-05-10T10:24:05.970Z,15.50
2018-05-10T10:25:05.050Z,15.00
2018-05-10T10:26:05.267Z,14.00
2018-05-10T10:27:05.825Z,13.50
2018-05-10T10:28:04.757Z,13.40
2018-05-10T10:29:04.748Z,13.40
2018-05-10T10:30:05.188Z,11.80
2018-05-10T10:31:05.229Z,12.50
2018-05-10T10:32:05.430Z,12.70
2018-05-10T10:33:05.635Z,14.00
2018-05-10T10:34:05.748Z,12.80
2018-05-10T10:35:05.491Z,12.70
2018-05-10T10:36:05.810Z,13.00
2018-05-10T10:37:04.802Z,15.50
2018-05-10T10:38:05.485Z,12.20
2018-05-10T10:39:26.510Z,13.40
2018-05-10T10:40:27.344Z,12.40
2018-05-10T10:41:27.981Z,13.20
2018-05-10T10:42:26.872Z,15.10
2018-05-10T10:43:26.821Z,14.30
2018-05-10T10:44:27.082Z,15.40
2018-05-10T10:45:27.930Z,13.60
2018-05-10T10:46:27.381Z,17.10
2018-05-10T10:47:28.524Z,17.90
2018-05-10T10:48:27.672Z,15.30
2018-05-10T10:49:26.836Z,13.80
2018-05-10T10:50:27.369Z,13.60
2018-05-10T10:51:27.596Z,13.60
2018-05-10T10:52:27.047Z,14.50
2018-05-10T10:54:09.995Z,14.10
2018-05-10T10:55:34.093Z,13.30
2018-05-10T10:56:33.587Z,11.70
2018-05-10T10:57:33.279Z,13.50
2018-05-10T10:58:33.384Z,11.40
2018-05-10T10:59:35.013Z,12.00
2018-05-10T11:00:33.065Z,11.90
2018-05-10T11:01:33.485Z,10.30
2018-05-10T11:02:33.187Z,8.80
2018-05-10T11:03:34.079Z,9.90
2018-05-10T11:04:54.778Z,9.10
2018-05-10T11:05:56.312Z,10.90
2018-05-10T11:06:56.354Z,9.80
2018-05-10T11:07:55.423Z,11.70
2018-05-10T11:08:55.450Z,10.60
2018-05-10T11:10:16.627Z,11.30
2018-05-10T11:11:37.905Z,9.60
2018-05-10T11:12:38.541Z,11.00
2018-05-10T11:13:38.916Z,10.60
2018-05-10T11:15:21.611Z,13.60
2018-05-10T11:16:22.469Z,9.00
2018-05-10T11:17:21.904Z,9.40
2018-05-10T11:18:21.957Z,9.00
2018-05-10T11:19:22.354Z,12.20
2018-05-10T11:20:21.596Z,10.90
2018-05-10T11:21:22.087Z,9.90
2018-05-10T11:22:21.973Z,12.10
2018-05-10T11:23:22.434Z,10.00
2018-05-10T11:24:21.305Z,9.30
2018-05-10T11:25:43.353Z,9.40
2018-05-10T11:26:43.545Z,8.30
2018-05-10T11:27:43.700Z,10.40
2018-05-10T11:28:44.732Z,13.20
2018-05-10T11:30:04.846Z,8.60
2018-05-10T11:31:07.571Z,10.60
2018-05-10T11:32:05.070Z,12.20
2018-05-10T11:33:05.293Z,12.60
2018-05-10T11:34:04.560Z,11.60
2018-05-10T11:35:25.993Z,11.20
2018-05-10T11:36:26.318Z,15.40
2018-05-10T11:37:27.029Z,14.80
2018-05-10T11:38:26.528Z,12.30
2018-05-10T11:39:26.739Z,7.80
2018-05-10T11:40:26.506Z,11.00
2018-05-10T11:41:26.908Z,9.40
2018-05-10T11:42:26.278Z,10.70
2018-05-10T11:43:26.154Z,12.20
2018-05-10T11:44:47.055Z,10.40
2018-05-10T11:45:48.365Z,13.60
2018-05-10T11:46:47.753Z,12.40
2018-05-10T11:47:48.189Z,9.10
2018-05-10T11:48:47.648Z,10.70
2018-05-10T11:49:47.498Z,16.00
2018-05-10T11:50:47.590Z,12.10
2018-05-10T11:51:47.972Z,11.10
2018-05-10T11:52:48.437Z,11.00
2018-05-10T11:53:47.757Z,12.10
2018-05-10T11:54:48.182Z,12.30
2018-05-10T11:55:49.707Z,11.00
2018-05-10T11:56:48.045Z,13.60
2018-05-10T11:57:47.218Z,16.30
2018-05-10T11:58:48.164Z,15.50
2018-05-10T12:00:07.780Z,21.90
2018-05-10T12:01:29.686Z,21.10
2018-05-10T12:02:30.639Z,22.50
2018-05-10T12:03:29.704Z,13.80
2018-05-10T12:04:30.201Z,15.40
2018-05-10T12:05:31.109Z,17.20
2018-05-10T12:06:30.674Z,18.10
2018-05-10T12:07:29.581Z,16.70
2018-05-10T12:08:50.611Z,19.70
2018-05-10T12:09:52.511Z,17.80
2018-05-10T12:10:51.118Z,15.70
2018-05-10T12:11:50.955Z,15.30
2018-05-10T12:13:12.528Z,19.50
2018-05-10T12:14:55.314Z,19.10
2018-05-10T12:15:55.652Z,20.50
2018-05-10T12:17:40.116Z,24.50
2018-05-10T12:18:40.113Z,22.40
2018-05-10T12:19:41.287Z,30.70
2018-05-10T12:20:43.757Z,25.90
2018-05-10T12:22:05.307Z,25.90
2018-05-10T12:23:05.803Z,29.20
2018-05-10T12:24:27.450Z,29.80
2018-05-10T12:25:28.141Z,35.80
2018-05-10T12:26:28.325Z,35.70
2018-05-10T12:27:30.540Z,30.70
2018-05-10T12:28:28.137Z,33.90
2018-05-10T12:29:28.957Z,29.30
2018-05-10T12:30:28.258Z,32.00
2018-05-10T12:31:28.541Z,32.20
2018-05-10T12:32:49.496Z,32.80
2018-05-10T12:33:50.130Z,32.90
2018-05-10T12:34:49.922Z,32.00
2018-05-10T12:35:50.094Z,34.20
2018-05-10T12:36:49.863Z,40.90
2018-05-10T12:37:50.397Z,41.90
2018-05-10T12:38:50.101Z,47.30
2018-05-10T12:39:50.112Z,41.90
2018-05-10T12:40:50.473Z,40.20
2018-05-10T12:41:49.822Z,38.40
2018-05-10T12:42:50.959Z,44.40
2018-05-10T12:43:50.408Z,49.50
2018-05-10T12:44:50.096Z,44.20
2018-05-10T12:45:49.697Z,46.70
2018-05-10T12:46:50.926Z,42.40
2018-05-10T12:47:49.746Z,48.00
2018-05-10T12:49:13.986Z,48.40
2018-05-10T12:50:14.110Z,49.20
2018-05-10T12:51:13.573Z,41.00
2018-05-10T12:52:14.027Z,40.50
2018-05-10T12:53:14.593Z,40.70
2018-05-10T12:54:13.508Z,40.20
2018-05-10T12:55:13.463Z,44.50
2018-05-10T12:56:13.666Z,45.00
2018-05-10T12:57:35.368Z,44.80
2018-05-10T12:58:35.461Z,45.20
2018-05-10T12:59:36.039Z,44.00
2018-05-10T13:00:35.007Z,44.30
2018-05-10T13:02:00.092Z,48.50
2018-05-10T13:03:00.453Z,47.10
2018-05-10T13:04:00.019Z,44.50
2018-05-10T13:05:22.914Z,48.60
2018-05-10T13:06:23.630Z,47.80
2018-05-10T13:07:24.850Z,51.00
2018-05-10T13:08:22.536Z,44.30
2018-05-10T13:09:23.029Z,44.50
2018-05-10T13:10:23.500Z,42.60
2018-05-10T13:11:22.123Z,49.50
2018-05-10T13:12:22.837Z,50.00
2018-05-10T13:13:21.999Z,45.00
2018-05-10T13:14:44.375Z,43.50
2018-05-10T13:16:05.521Z,39.80
2018-05-10T13:17:06.269Z,44.70
2018-05-10T13:18:27.356Z,47.40
2018-05-10T13:19:28.155Z,46.50
2018-05-10T13:20:27.954Z,46.80
2018-05-10T13:21:27.234Z,57.60
2018-05-10T13:22:28.558Z,53.60
2018-05-10T13:23:28.032Z,50.80
2018-05-10T13:24:30.101Z,51.30
2018-05-10T13:25:27.525Z,50.70
2018-05-10T13:26:28.487Z,48.50
2018-05-10T13:27:28.984Z,50.80
2018-05-10T13:28:27.865Z,56.50
2018-05-10T13:29:28.383Z,57.10
2018-05-10T13:30:28.258Z,62.40
2018-05-10T13:32:12.235Z,57.00
2018-05-10T13:33:11.850Z,56.80
2018-05-10T13:34:11.158Z,50.50
2018-05-10T13:35:12.425Z,55.80
2018-05-10T13:36:11.305Z,52.30
2018-05-10T13:37:12.224Z,54.50
2018-05-10T13:38:32.023Z,57.30